sensor_id;sensor_type;location;lat;lon;timestamp;P1;durP1;ratioP1;P2;durP2;ratioP2
69956;SDS011;57283;54.816;9.482;2022-11-20T00:01:04;4.53;;;1.33;;
69956;SDS011;57283;54.816;9.482;2022-11-20T00:03:33;7.95;;;1.20;;
69956;SDS011;57283;54.816;9.482;2022-11-20T00:06:02;5.80;;;1.20;;
69956;SDS011;57283;54.816;9.482;2022-11-20T00:08:32;4.95;;;1.27;;
69956;SDS011;57283;54.816;9.482;2022-11-20T00:11:02;3.25;;;0.95;;
69956;SDS011;57283;54.816;9.482;2022-11-20T00:13:30;2.55;;;0.90;;
69956;SDS011;57283;54.816;9.482;2022-11-20T00:15:58;4.40;;;1.10;;
69956;SDS011;57283;54.816;9.482;2022-11-20T00:18:27;4.25;;;0.93;;
69956;SDS011;57283;54.816;9.482;2022-11-20T00:21:01;2.97;;;0.90;;
69956;SDS011;57283;54.816;9.482;2022-11-20T00:23:30;2.85;;;0.90;;
69956;SDS011;57283;54.816;9.482;2022-11-20T00:26:00;3.42;;;0.98;;
69956;SDS011;57283;54.816;9.482;2022-11-20T00:28:30;3.22;;;0.75;;
69956;SDS011;57283;54.816;9.482;2022-11-20T00:31:01;3.00;;;0.85;;
69956;SDS011;57283;54.816;9.482;2022-11-20T00:33:30;3.03;;;0.85;;
69956;SDS011;57283;54.816;9.482;2022-11-20T00:36:00;3.50;;;0.98;;
69956;SDS011;57283;54.816;9.482;2022-11-20T00:38:30;3.22;;;0.98;;
69956;SDS011;57283;54.816;9.482;2022-11-20T00:40:58;3.00;;;0.82;;
69956;SDS011;57283;54.816;9.482;2022-11-20T00:43:27;4.45;;;1.20;;
69956;SDS011;57283;54.816;9.482;2022-11-20T00:45:58;3.90;;;0.95;;
69956;SDS011;57283;54.816;9.482;2022-11-20T00:48:26;2.17;;;0.75;;
69956;SDS011;57283;54.816;9.482;2022-11-20T00:50:55;7.15;;;0.90;;
69956;SDS011;57283;54.816;9.482;2022-11-20T00:53:24;3.65;;;0.85;;
69956;SDS011;57283;54.816;9.482;2022-11-20T00:55:53;4.10;;;0.88;;
69956;SDS011;57283;54.816;9.482;2022-11-20T00:58:22;3.30;;;1.20;;
69956;SDS011;57283;54.816;9.482;2022-11-20T01:00:51;3.95;;;1.02;;
69956;SDS011;57283;54.816;9.482;2022-11-20T01:03:19;3.38;;;1.00;;
69956;SDS011;57283;54.816;9.482;2022-11-20T01:05:52;3.60;;;0.95;;
69956;SDS011;57283;54.816;9.482;2022-11-20T01:08:20;3.38;;;1.10;;
69956;SDS011;57283;54.816;9.482;2022-11-20T01:10:49;2.70;;;0.90;;
69956;SDS011;57283;54.816;9.482;2022-11-20T01:13:17;4.65;;;1.35;;
69956;SDS011;57283;54.816;9.482;2022-11-20T01:16:03;4.60;;;1.40;;
69956;SDS011;57283;54.816;9.482;2022-11-20T01:18:31;3.30;;;1.00;;
69956;SDS011;57283;54.816;9.482;2022-11-20T01:21:02;3.85;;;1.10;;
69956;SDS011;57283;54.816;9.482;2022-11-20T01:23:32;5.55;;;1.15;;
69956;SDS011;57283;54.816;9.482;2022-11-20T01:26:02;3.67;;;0.90;;
69956;SDS011;57283;54.816;9.482;2022-11-20T01:28:31;2.55;;;0.75;;
69956;SDS011;57283;54.816;9.482;2022-11-20T01:30:59;4.28;;;1.00;;
69956;SDS011;57283;54.816;9.482;2022-11-20T01:33:27;3.47;;;1.05;;
69956;SDS011;57283;54.816;9.482;2022-11-20T01:36:02;3.40;;;0.90;;
69956;SDS011;57283;54.816;9.482;2022-11-20T01:38:31;3.13;;;0.97;;
69956;SDS011;57283;54.816;9.482;2022-11-20T01:40:59;5.93;;;1.35;;
69956;SDS011;57283;54.816;9.482;2022-11-20T01:43:29;3.10;;;0.80;;
69956;SDS011;57283;54.816;9.482;2022-11-20T01:45:56;3.58;;;1.00;;
69956;SDS011;57283;54.816;9.482;2022-11-20T01:48:36;3.53;;;1.02;;
69956;SDS011;57283;54.816;9.482;2022-11-20T01:51:06;3.58;;;0.82;;
69956;SDS011;57283;54.816;9.482;2022-11-20T01:53:40;3.28;;;1.05;;
69956;SDS011;57283;54.816;9.482;2022-11-20T01:56:09;3.30;;;0.98;;
69956;SDS011;57283;54.816;9.482;2022-11-20T01:58:43;3.60;;;1.00;;
69956;SDS011;57283;54.816;9.482;2022-11-20T02:01:15;2.50;;;0.73;;
69956;SDS011;57283;54.816;9.482;2022-11-20T02:03:44;2.90;;;1.00;;
69956;SDS011;57283;54.816;9.482;2022-11-20T02:06:13;3.33;;;0.70;;
69956;SDS011;57283;54.816;9.482;2022-11-20T02:08:46;2.95;;;0.82;;
69956;SDS011;57283;54.816;9.482;2022-11-20T02:11:14;2.80;;;0.80;;
69956;SDS011;57283;54.816;9.482;2022-11-20T02:13:43;4.05;;;0.93;;
69956;SDS011;57283;54.816;9.482;2022-11-20T02:16:16;2.75;;;1.08;;
69956;SDS011;57283;54.816;9.482;2022-11-20T02:18:47;4.38;;;1.25;;
69956;SDS011;57283;54.816;9.482;2022-11-20T02:24:06;3.15;;;1.10;;
69956;SDS011;57283;54.816;9.482;2022-11-20T02:26:38;2.40;;;0.60;;
69956;SDS011;57283;54.816;9.482;2022-11-20T02:29:12;3.73;;;1.40;;
69956;SDS011;57283;54.816;9.482;2022-11-20T02:31:43;2.75;;;0.90;;
69956;SDS011;57283;54.816;9.482;2022-11-20T02:34:12;3.20;;;0.95;;
69956;SDS011;57283;54.816;9.482;2022-11-20T02:36:40;2.40;;;0.70;;
69956;SDS011;57283;54.816;9.482;2022-11-20T02:39:10;3.58;;;1.08;;
69956;SDS011;57283;54.816;9.482;2022-11-20T02:41:43;3.00;;;1.10;;
69956;SDS011;57283;54.816;9.482;2022-11-20T02:44:11;3.80;;;1.35;;
69956;SDS011;57283;54.816;9.482;2022-11-20T02:46:39;4.88;;;1.05;;
69956;SDS011;57283;54.816;9.482;2022-11-20T02:49:07;3.20;;;1.05;;
69956;SDS011;57283;54.816;9.482;2022-11-20T02:51:35;2.58;;;0.57;;
69956;SDS011;57283;54.816;9.482;2022-11-20T02:54:03;3.10;;;1.00;;
69956;SDS011;57283;54.816;9.482;2022-11-20T02:56:32;3.30;;;0.98;;
69956;SDS011;57283;54.816;9.482;2022-11-20T02:59:00;4.03;;;0.98;;
69956;SDS011;57283;54.816;9.482;2022-11-20T03:01:28;3.47;;;0.82;;
69956;SDS011;57283;54.816;9.482;2022-11-20T03:03:56;2.92;;;1.00;;
69956;SDS011;57283;54.816;9.482;2022-11-20T03:06:24;3.28;;;1.08;;
69956;SDS011;57283;54.816;9.482;2022-11-20T03:08:51;2.92;;;1.00;;
69956;SDS011;57283;54.816;9.482;2022-11-20T03:11:19;2.78;;;0.75;;
69956;SDS011;57283;54.816;9.482;2022-11-20T03:13:49;5.07;;;1.10;;
69956;SDS011;57283;54.816;9.482;2022-11-20T03:16:19;3.30;;;1.08;;
69956;SDS011;57283;54.816;9.482;2022-11-20T03:18:48;4.40;;;1.10;;
69956;SDS011;57283;54.816;9.482;2022-11-20T03:21:16;3.70;;;1.30;;
69956;SDS011;57283;54.816;9.482;2022-11-20T03:23:44;3.58;;;1.15;;
69956;SDS011;57283;54.816;9.482;2022-11-20T03:26:13;3.45;;;1.08;;
69956;SDS011;57283;54.816;9.482;2022-11-20T03:28:42;3.20;;;0.90;;
69956;SDS011;57283;54.816;9.482;2022-11-20T03:31:15;2.80;;;0.95;;
69956;SDS011;57283;54.816;9.482;2022-11-20T03:33:45;3.53;;;0.77;;
69956;SDS011;57283;54.816;9.482;2022-11-20T03:36:14;3.00;;;0.98;;
69956;SDS011;57283;54.816;9.482;2022-11-20T03:38:43;3.20;;;1.08;;
69956;SDS011;57283;54.816;9.482;2022-11-20T03:41:14;2.75;;;0.85;;
69956;SDS011;57283;54.816;9.482;2022-11-20T03:43:46;3.72;;;1.20;;
69956;SDS011;57283;54.816;9.482;2022-11-20T03:46:16;2.60;;;0.82;;
69956;SDS011;57283;54.816;9.482;2022-11-20T03:48:45;2.40;;;0.80;;
69956;SDS011;57283;54.816;9.482;2022-11-20T03:51:18;3.03;;;0.70;;
69956;SDS011;57283;54.816;9.482;2022-11-20T03:53:48;2.85;;;0.90;;
69956;SDS011;57283;54.816;9.482;2022-11-20T03:56:19;3.80;;;0.93;;
69956;SDS011;57283;54.816;9.482;2022-11-20T03:58:49;3.53;;;0.93;;
69956;SDS011;57283;54.816;9.482;2022-11-20T04:01:19;2.63;;;0.85;;
69956;SDS011;57283;54.816;9.482;2022-11-20T04:03:48;4.15;;;1.65;;
69956;SDS011;57283;54.816;9.482;2022-11-20T04:06:17;3.80;;;1.27;;
69956;SDS011;57283;54.816;9.482;2022-11-20T04:08:46;5.10;;;1.23;;
69956;SDS011;57283;54.816;9.482;2022-11-20T04:11:20;4.75;;;1.45;;
69956;SDS011;57283;54.816;9.482;2022-11-20T04:13:49;4.53;;;1.25;;
69956;SDS011;57283;54.816;9.482;2022-11-20T04:16:20;3.55;;;1.08;;
69956;SDS011;57283;54.816;9.482;2022-11-20T04:18:51;3.00;;;1.00;;
69956;SDS011;57283;54.816;9.482;2022-11-20T04:21:20;3.78;;;1.02;;
69956;SDS011;57283;54.816;9.482;2022-11-20T04:23:48;3.13;;;1.10;;
69956;SDS011;57283;54.816;9.482;2022-11-20T04:26:16;3.50;;;1.20;;
69956;SDS011;57283;54.816;9.482;2022-11-20T04:28:44;3.10;;;0.95;;
69956;SDS011;57283;54.816;9.482;2022-11-20T04:31:13;3.70;;;1.10;;
69956;SDS011;57283;54.816;9.482;2022-11-20T04:33:43;3.47;;;1.23;;
69956;SDS011;57283;54.816;9.482;2022-11-20T04:36:12;3.33;;;0.98;;
69956;SDS011;57283;54.816;9.482;2022-11-20T04:38:41;3.63;;;1.10;;
69956;SDS011;57283;54.816;9.482;2022-11-20T04:41:11;3.33;;;1.00;;
69956;SDS011;57283;54.816;9.482;2022-11-20T04:43:45;2.53;;;0.80;;
69956;SDS011;57283;54.816;9.482;2022-11-20T04:46:13;3.35;;;1.10;;
69956;SDS011;57283;54.816;9.482;2022-11-20T04:48:43;3.15;;;1.13;;
69956;SDS011;57283;54.816;9.482;2022-11-20T04:51:11;3.78;;;1.10;;
69956;SDS011;57283;54.816;9.482;2022-11-20T04:53:39;3.08;;;0.90;;
69956;SDS011;57283;54.816;9.482;2022-11-20T04:56:08;6.05;;;1.30;;
69956;SDS011;57283;54.816;9.482;2022-11-20T04:58:38;3.13;;;1.13;;
69956;SDS011;57283;54.816;9.482;2022-11-20T05:01:07;2.00;;;0.52;;
69956;SDS011;57283;54.816;9.482;2022-11-20T05:03:37;3.97;;;0.90;;
69956;SDS011;57283;54.816;9.482;2022-11-20T05:06:09;2.00;;;0.50;;
69956;SDS011;57283;54.816;9.482;2022-11-20T05:08:38;2.65;;;0.68;;
69956;SDS011;57283;54.816;9.482;2022-11-20T05:11:06;3.10;;;0.70;;
69956;SDS011;57283;54.816;9.482;2022-11-20T05:13:36;2.50;;;0.60;;
69956;SDS011;57283;54.816;9.482;2022-11-20T05:16:05;2.35;;;0.60;;
69956;SDS011;57283;54.816;9.482;2022-11-20T05:18:34;2.05;;;0.50;;
69956;SDS011;57283;54.816;9.482;2022-11-20T05:21:03;2.53;;;0.65;;
69956;SDS011;57283;54.816;9.482;2022-11-20T05:23:33;2.80;;;0.93;;
69956;SDS011;57283;54.816;9.482;2022-11-20T05:26:01;1.90;;;0.55;;
69956;SDS011;57283;54.816;9.482;2022-11-20T05:28:30;2.42;;;0.73;;
69956;SDS011;57283;54.816;9.482;2022-11-20T05:31:03;2.58;;;0.60;;
69956;SDS011;57283;54.816;9.482;2022-11-20T05:33:32;3.55;;;1.10;;
69956;SDS011;57283;54.816;9.482;2022-11-20T05:36:00;2.93;;;0.80;;
69956;SDS011;57283;54.816;9.482;2022-11-20T05:38:28;2.00;;;0.50;;
69956;SDS011;57283;54.816;9.482;2022-11-20T05:41:03;6.00;;;0.90;;
69956;SDS011;57283;54.816;9.482;2022-11-20T05:43:32;1.98;;;0.50;;
69956;SDS011;57283;54.816;9.482;2022-11-20T05:46:01;2.65;;;0.68;;
69956;SDS011;57283;54.816;9.482;2022-11-20T05:48:29;4.40;;;0.63;;
69956;SDS011;57283;54.816;9.482;2022-11-20T05:50:57;2.65;;;0.50;;
69956;SDS011;57283;54.816;9.482;2022-11-20T05:53:26;3.50;;;1.13;;
69956;SDS011;57283;54.816;9.482;2022-11-20T05:55:57;2.40;;;0.90;;
69956;SDS011;57283;54.816;9.482;2022-11-20T05:58:27;2.33;;;0.68;;
69956;SDS011;57283;54.816;9.482;2022-11-20T06:00:58;4.03;;;1.10;;
69956;SDS011;57283;54.816;9.482;2022-11-20T06:03:31;2.33;;;0.60;;
69956;SDS011;57283;54.816;9.482;2022-11-20T06:05:59;2.92;;;0.68;;
69956;SDS011;57283;54.816;9.482;2022-11-20T06:08:27;2.50;;;0.60;;
69956;SDS011;57283;54.816;9.482;2022-11-20T06:10:55;3.13;;;0.80;;
69956;SDS011;57283;54.816;9.482;2022-11-20T06:13:24;3.80;;;1.10;;
69956;SDS011;57283;54.816;9.482;2022-11-20T06:15:53;3.25;;;0.93;;
69956;SDS011;57283;54.816;9.482;2022-11-20T06:18:21;3.35;;;0.80;;
69956;SDS011;57283;54.816;9.482;2022-11-20T06:20:49;3.90;;;1.17;;
69956;SDS011;57283;54.816;9.482;2022-11-20T06:23:17;3.22;;;0.82;;
69956;SDS011;57283;54.816;9.482;2022-11-20T06:25:44;4.57;;;1.10;;
69956;SDS011;57283;54.816;9.482;2022-11-20T06:28:12;2.97;;;0.93;;
69956;SDS011;57283;54.816;9.482;2022-11-20T06:30:44;3.67;;;1.15;;
69956;SDS011;57283;54.816;9.482;2022-11-20T06:33:13;2.70;;;0.90;;
69956;SDS011;57283;54.816;9.482;2022-11-20T06:35:41;3.78;;;0.82;;
69956;SDS011;57283;54.816;9.482;2022-11-20T06:38:09;3.73;;;1.40;;
69956;SDS011;57283;54.816;9.482;2022-11-20T06:40:39;4.28;;;1.30;;
69956;SDS011;57283;54.816;9.482;2022-11-20T06:43:07;2.38;;;0.75;;
69956;SDS011;57283;54.816;9.482;2022-11-20T06:45:35;2.60;;;0.93;;
69956;SDS011;57283;54.816;9.482;2022-11-20T06:48:04;2.95;;;0.85;;
69956;SDS011;57283;54.816;9.482;2022-11-20T06:50:33;3.00;;;0.80;;
69956;SDS011;57283;54.816;9.482;2022-11-20T06:53:01;3.55;;;1.08;;
69956;SDS011;57283;54.816;9.482;2022-11-20T06:55:30;5.07;;;1.52;;
69956;SDS011;57283;54.816;9.482;2022-11-20T06:57:58;3.60;;;1.13;;
69956;SDS011;57283;54.816;9.482;2022-11-20T07:00:26;3.83;;;1.02;;
69956;SDS011;57283;54.816;9.482;2022-11-20T07:02:54;2.90;;;1.00;;
69956;SDS011;57283;54.816;9.482;2022-11-20T07:05:22;2.88;;;1.10;;
69956;SDS011;57283;54.816;9.482;2022-11-20T07:07:51;3.78;;;1.10;;
69956;SDS011;57283;54.816;9.482;2022-11-20T07:10:19;3.58;;;1.20;;
69956;SDS011;57283;54.816;9.482;2022-11-20T07:12:48;2.97;;;1.02;;
69956;SDS011;57283;54.816;9.482;2022-11-20T07:15:16;2.63;;;0.77;;
69956;SDS011;57283;54.816;9.482;2022-11-20T07:17:44;2.90;;;0.88;;
69956;SDS011;57283;54.816;9.482;2022-11-20T07:20:13;3.40;;;1.02;;
69956;SDS011;57283;54.816;9.482;2022-11-20T07:22:41;3.42;;;1.08;;
69956;SDS011;57283;54.816;9.482;2022-11-20T07:25:10;3.13;;;0.77;;
69956;SDS011;57283;54.816;9.482;2022-11-20T07:27:38;3.07;;;0.93;;
69956;SDS011;57283;54.816;9.482;2022-11-20T07:30:06;3.25;;;1.05;;
69956;SDS011;57283;54.816;9.482;2022-11-20T07:32:35;3.40;;;1.02;;
69956;SDS011;57283;54.816;9.482;2022-11-20T07:35:03;4.60;;;1.13;;
69956;SDS011;57283;54.816;9.482;2022-11-20T07:37:33;3.30;;;0.90;;
69956;SDS011;57283;54.816;9.482;2022-11-20T07:40:02;3.23;;;1.03;;
69956;SDS011;57283;54.816;9.482;2022-11-20T07:42:31;3.03;;;0.88;;
69956;SDS011;57283;54.816;9.482;2022-11-20T07:44:59;3.15;;;0.88;;
69956;SDS011;57283;54.816;9.482;2022-11-20T07:47:27;3.47;;;1.08;;
69956;SDS011;57283;54.816;9.482;2022-11-20T07:49:55;4.88;;;1.33;;
69956;SDS011;57283;54.816;9.482;2022-11-20T07:52:23;3.87;;;1.33;;
69956;SDS011;57283;54.816;9.482;2022-11-20T07:54:50;3.47;;;1.05;;
69956;SDS011;57283;54.816;9.482;2022-11-20T07:57:18;4.70;;;1.63;;
69956;SDS011;57283;54.816;9.482;2022-11-20T07:59:54;3.47;;;1.17;;
69956;SDS011;57283;54.816;9.482;2022-11-20T08:02:22;4.10;;;1.30;;
69956;SDS011;57283;54.816;9.482;2022-11-20T08:04:50;4.63;;;1.20;;
69956;SDS011;57283;54.816;9.482;2022-11-20T08:07:18;3.63;;;1.40;;
69956;SDS011;57283;54.816;9.482;2022-11-20T08:09:46;3.15;;;1.17;;
69956;SDS011;57283;54.816;9.482;2022-11-20T08:12:16;4.07;;;1.30;;
69956;SDS011;57283;54.816;9.482;2022-11-20T08:15:05;3.38;;;1.23;;
69956;SDS011;57283;54.816;9.482;2022-11-20T08:17:38;3.85;;;1.52;;
69956;SDS011;57283;54.816;9.482;2022-11-20T08:20:06;3.20;;;1.30;;
69956;SDS011;57283;54.816;9.482;2022-11-20T08:22:35;3.22;;;1.20;;
69956;SDS011;57283;54.816;9.482;2022-11-20T08:25:03;3.50;;;1.30;;
69956;SDS011;57283;54.816;9.482;2022-11-20T08:27:32;3.88;;;1.30;;
69956;SDS011;57283;54.816;9.482;2022-11-20T08:30:06;3.40;;;1.15;;
69956;SDS011;57283;54.816;9.482;2022-11-20T08:32:35;4.57;;;1.40;;
69956;SDS011;57283;54.816;9.482;2022-11-20T08:35:04;3.42;;;1.15;;
69956;SDS011;57283;54.816;9.482;2022-11-20T08:37:32;3.75;;;1.08;;
69956;SDS011;57283;54.816;9.482;2022-11-20T08:40:00;3.85;;;1.13;;
69956;SDS011;57283;54.816;9.482;2022-11-20T08:42:27;2.53;;;0.80;;
69956;SDS011;57283;54.816;9.482;2022-11-20T08:44:55;3.03;;;1.10;;
69956;SDS011;57283;54.816;9.482;2022-11-20T08:47:24;3.60;;;1.58;;
69956;SDS011;57283;54.816;9.482;2022-11-20T08:49:52;3.95;;;1.50;;
69956;SDS011;57283;54.816;9.482;2022-11-20T08:52:20;3.30;;;1.08;;
69956;SDS011;57283;54.816;9.482;2022-11-20T08:54:48;3.72;;;1.20;;
69956;SDS011;57283;54.816;9.482;2022-11-20T08:57:15;3.47;;;1.40;;
69956;SDS011;57283;54.816;9.482;2022-11-20T08:59:43;3.38;;;1.30;;
69956;SDS011;57283;54.816;9.482;2022-11-20T09:02:33;3.20;;;1.40;;
69956;SDS011;57283;54.816;9.482;2022-11-20T09:05:01;3.30;;;1.40;;
69956;SDS011;57283;54.816;9.482;2022-11-20T09:07:29;3.80;;;1.60;;
69956;SDS011;57283;54.816;9.482;2022-11-20T09:09:57;3.40;;;1.50;;
69956;SDS011;57283;54.816;9.482;2022-11-20T09:12:48;3.30;;;1.52;;
69956;SDS011;57283;54.816;9.482;2022-11-20T09:15:16;3.53;;;1.70;;
69956;SDS011;57283;54.816;9.482;2022-11-20T09:17:51;3.45;;;1.55;;
69956;SDS011;57283;54.816;9.482;2022-11-20T09:20:19;3.55;;;1.60;;
69956;SDS011;57283;54.816;9.482;2022-11-20T09:22:47;3.90;;;1.70;;
69956;SDS011;57283;54.816;9.482;2022-11-20T09:25:15;4.80;;;1.77;;
69956;SDS011;57283;54.816;9.482;2022-11-20T09:27:44;3.35;;;1.50;;
69956;SDS011;57283;54.816;9.482;2022-11-20T09:30:12;3.70;;;1.67;;
69956;SDS011;57283;54.816;9.482;2022-11-20T09:32:41;3.72;;;1.52;;
69956;SDS011;57283;54.816;9.482;2022-11-20T09:35:10;3.60;;;1.50;;
69956;SDS011;57283;54.816;9.482;2022-11-20T09:37:38;4.80;;;1.70;;
69956;SDS011;57283;54.816;9.482;2022-11-20T09:40:06;3.28;;;1.40;;
69956;SDS011;57283;54.816;9.482;2022-11-20T09:42:47;3.47;;;1.40;;
69956;SDS011;57283;54.816;9.482;2022-11-20T09:45:24;3.33;;;1.35;;
69956;SDS011;57283;54.816;9.482;2022-11-20T09:51:07;3.30;;;1.40;;
69956;SDS011;57283;54.816;9.482;2022-11-20T09:53:47;3.10;;;1.40;;
69956;SDS011;57283;54.816;9.482;2022-11-20T09:56:24;3.95;;;1.67;;
69956;SDS011;57283;54.816;9.482;2022-11-20T09:58:54;4.15;;;1.60;;
69956;SDS011;57283;54.816;9.482;2022-11-20T10:01:26;4.23;;;1.80;;
69956;SDS011;57283;54.816;9.482;2022-11-20T10:03:58;3.50;;;1.70;;
69956;SDS011;57283;54.816;9.482;2022-11-20T10:06:32;4.28;;;1.70;;
69956;SDS011;57283;54.816;9.482;2022-11-20T10:09:03;4.57;;;1.63;;
69956;SDS011;57283;54.816;9.482;2022-11-20T10:11:45;3.42;;;1.63;;
69956;SDS011;57283;54.816;9.482;2022-11-20T10:14:17;3.60;;;1.60;;
69956;SDS011;57283;54.816;9.482;2022-11-20T10:16:56;3.85;;;2.00;;
69956;SDS011;57283;54.816;9.482;2022-11-20T10:19:34;4.47;;;2.10;;
69956;SDS011;57283;54.816;9.482;2022-11-20T10:22:14;3.78;;;2.00;;
69956;SDS011;57283;54.816;9.482;2022-11-20T10:24:52;3.72;;;2.08;;
69956;SDS011;57283;54.816;9.482;2022-11-20T10:27:30;3.73;;;1.90;;
69956;SDS011;57283;54.816;9.482;2022-11-20T10:30:12;3.58;;;1.80;;
69956;SDS011;57283;54.816;9.482;2022-11-20T10:32:42;3.85;;;1.50;;
69956;SDS011;57283;54.816;9.482;2022-11-20T10:35:18;3.53;;;1.80;;
69956;SDS011;57283;54.816;9.482;2022-11-20T10:37:53;3.83;;;1.70;;
69956;SDS011;57283;54.816;9.482;2022-11-20T10:40:27;3.70;;;1.63;;
69956;SDS011;57283;54.816;9.482;2022-11-20T10:42:59;3.40;;;1.50;;
69956;SDS011;57283;54.816;9.482;2022-11-20T10:45:36;3.15;;;1.30;;
69956;SDS011;57283;54.816;9.482;2022-11-20T10:48:20;3.45;;;1.40;;
69956;SDS011;57283;54.816;9.482;2022-11-20T10:51:04;3.25;;;1.38;;
69956;SDS011;57283;54.816;9.482;2022-11-20T10:56:38;3.25;;;1.30;;
69956;SDS011;57283;54.816;9.482;2022-11-20T10:59:37;3.50;;;1.20;;
69956;SDS011;57283;54.816;9.482;2022-11-20T11:02:15;3.08;;;1.33;;
69956;SDS011;57283;54.816;9.482;2022-11-20T11:04:45;3.20;;;1.40;;
69956;SDS011;57283;54.816;9.482;2022-11-20T11:07:15;3.43;;;1.40;;
69956;SDS011;57283;54.816;9.482;2022-11-20T11:09:48;3.60;;;1.50;;
69956;SDS011;57283;54.816;9.482;2022-11-20T11:12:18;3.10;;;1.30;;
69956;SDS011;57283;54.816;9.482;2022-11-20T11:14:48;3.13;;;1.45;;
69956;SDS011;57283;54.816;9.482;2022-11-20T11:17:24;3.65;;;1.20;;
69956;SDS011;57283;54.816;9.482;2022-11-20T11:20:05;3.43;;;1.40;;
69956;SDS011;57283;54.816;9.482;2022-11-20T11:22:43;4.40;;;1.20;;
69956;SDS011;57283;54.816;9.482;2022-11-20T11:25:24;3.63;;;1.50;;
69956;SDS011;57283;54.816;9.482;2022-11-20T11:27:56;3.60;;;1.20;;
69956;SDS011;57283;54.816;9.482;2022-11-20T11:30:27;4.70;;;1.58;;
69956;SDS011;57283;54.816;9.482;2022-11-20T11:33:03;3.90;;;1.70;;
69956;SDS011;57283;54.816;9.482;2022-11-20T11:35:32;3.08;;;1.27;;
69956;SDS011;57283;54.816;9.482;2022-11-20T11:38:04;3.90;;;1.60;;
69956;SDS011;57283;54.816;9.482;2022-11-20T11:40:35;3.08;;;1.27;;
69956;SDS011;57283;54.816;9.482;2022-11-20T11:43:05;4.45;;;1.60;;
69956;SDS011;57283;54.816;9.482;2022-11-20T11:46:05;3.50;;;1.63;;
69956;SDS011;57283;54.816;9.482;2022-11-20T11:48:55;4.15;;;1.88;;
69956;SDS011;57283;54.816;9.482;2022-11-20T11:51:25;3.20;;;1.60;;
69956;SDS011;57283;54.816;9.482;2022-11-20T11:53:56;3.90;;;2.00;;
69956;SDS011;57283;54.816;9.482;2022-11-20T11:56:29;4.30;;;1.98;;
69956;SDS011;57283;54.816;9.482;2022-11-20T11:59:00;5.30;;;1.90;;
69956;SDS011;57283;54.816;9.482;2022-11-20T12:01:39;4.13;;;2.53;;
69956;SDS011;57283;54.816;9.482;2022-11-20T12:04:13;3.75;;;2.10;;
69956;SDS011;57283;54.816;9.482;2022-11-20T12:06:48;3.58;;;1.95;;
69956;SDS011;57283;54.816;9.482;2022-11-20T12:09:19;4.00;;;1.80;;
69956;SDS011;57283;54.816;9.482;2022-11-20T12:11:53;3.10;;;1.60;;
69956;SDS011;57283;54.816;9.482;2022-11-20T12:14:25;4.00;;;2.03;;
69956;SDS011;57283;54.816;9.482;2022-11-20T12:16:59;3.72;;;1.90;;
69956;SDS011;57283;54.816;9.482;2022-11-20T12:19:28;3.40;;;1.92;;
69956;SDS011;57283;54.816;9.482;2022-11-20T12:22:01;4.15;;;2.00;;
69956;SDS011;57283;54.816;9.482;2022-11-20T12:27:39;3.40;;;2.00;;
69956;SDS011;57283;54.816;9.482;2022-11-20T12:30:15;3.42;;;1.80;;
69956;SDS011;57283;54.816;9.482;2022-11-20T12:35:54;4.38;;;2.20;;
69956;SDS011;57283;54.816;9.482;2022-11-20T12:38:36;3.50;;;2.30;;
69956;SDS011;57283;54.816;9.482;2022-11-20T12:41:23;3.50;;;2.10;;
69956;SDS011;57283;54.816;9.482;2022-11-20T12:44:29;3.75;;;2.20;;
69956;SDS011;57283;54.816;9.482;2022-11-20T12:47:28;3.28;;;2.00;;
69956;SDS011;57283;54.816;9.482;2022-11-20T12:50:06;3.70;;;1.83;;
69956;SDS011;57283;54.816;9.482;2022-11-20T12:52:44;4.50;;;2.40;;
69956;SDS011;57283;54.816;9.482;2022-11-20T12:55:23;4.38;;;2.45;;
69956;SDS011;57283;54.816;9.482;2022-11-20T12:58:00;5.55;;;2.60;;
69956;SDS011;57283;54.816;9.482;2022-11-20T13:00:40;3.90;;;2.03;;
69956;SDS011;57283;54.816;9.482;2022-11-20T13:03:29;3.80;;;1.88;;
69956;SDS011;57283;54.816;9.482;2022-11-20T13:06:16;3.57;;;1.80;;
69956;SDS011;57283;54.816;9.482;2022-11-20T13:08:48;3.95;;;1.92;;
69956;SDS011;57283;54.816;9.482;2022-11-20T13:11:20;3.33;;;1.52;;
69956;SDS011;57283;54.816;9.482;2022-11-20T13:14:03;3.58;;;1.55;;
69956;SDS011;57283;54.816;9.482;2022-11-20T13:16:45;4.80;;;1.27;;
69956;SDS011;57283;54.816;9.482;2022-11-20T13:19:19;3.13;;;1.07;;
69956;SDS011;57283;54.816;9.482;2022-11-20T13:21:48;3.53;;;1.30;;
69956;SDS011;57283;54.816;9.482;2022-11-20T13:24:21;3.70;;;1.30;;
69956;SDS011;57283;54.816;9.482;2022-11-20T13:27:05;3.70;;;1.30;;
69956;SDS011;57283;54.816;9.482;2022-11-20T13:29:47;3.17;;;1.20;;
69956;SDS011;57283;54.816;9.482;2022-11-20T13:32:29;3.30;;;1.03;;
69956;SDS011;57283;54.816;9.482;2022-11-20T13:34:59;3.25;;;0.93;;
69956;SDS011;57283;54.816;9.482;2022-11-20T13:37:29;3.90;;;1.10;;
69956;SDS011;57283;54.816;9.482;2022-11-20T13:40:05;3.05;;;1.02;;
69956;SDS011;57283;54.816;9.482;2022-11-20T13:42:43;2.90;;;1.10;;
69956;SDS011;57283;54.816;9.482;2022-11-20T13:45:21;3.35;;;1.00;;
69956;SDS011;57283;54.816;9.482;2022-11-20T13:47:52;2.90;;;0.90;;
69956;SDS011;57283;54.816;9.482;2022-11-20T13:50:21;3.38;;;1.33;;
69956;SDS011;57283;54.816;9.482;2022-11-20T13:53:08;2.50;;;0.70;;
69956;SDS011;57283;54.816;9.482;2022-11-20T13:55:50;2.80;;;1.02;;
69956;SDS011;57283;54.816;9.482;2022-11-20T13:58:29;4.25;;;1.10;;
69956;SDS011;57283;54.816;9.482;2022-11-20T14:01:08;2.90;;;1.00;;
69956;SDS011;57283;54.816;9.482;2022-11-20T14:03:39;3.30;;;0.90;;
69956;SDS011;57283;54.816;9.482;2022-11-20T14:06:28;3.72;;;1.08;;
69956;SDS011;57283;54.816;9.482;2022-11-20T14:08:58;4.13;;;1.30;;
69956;SDS011;57283;54.816;9.482;2022-11-20T14:11:27;2.70;;;0.90;;
69956;SDS011;57283;54.816;9.482;2022-11-20T14:13:57;3.53;;;1.10;;
69956;SDS011;57283;54.816;9.482;2022-11-20T14:16:27;4.28;;;1.08;;
69956;SDS011;57283;54.816;9.482;2022-11-20T14:19:16;4.95;;;1.45;;
69956;SDS011;57283;54.816;9.482;2022-11-20T14:21:54;3.72;;;1.15;;
69956;SDS011;57283;54.816;9.482;2022-11-20T14:24:34;4.53;;;1.45;;
69956;SDS011;57283;54.816;9.482;2022-11-20T14:27:02;4.63;;;1.50;;
69956;SDS011;57283;54.816;9.482;2022-11-20T14:29:33;3.80;;;1.48;;
69956;SDS011;57283;54.816;9.482;2022-11-20T14:32:03;3.80;;;1.15;;
69956;SDS011;57283;54.816;9.482;2022-11-20T14:34:35;3.90;;;1.40;;
69956;SDS011;57283;54.816;9.482;2022-11-20T14:37:10;2.92;;;1.15;;
69956;SDS011;57283;54.816;9.482;2022-11-20T14:39:46;3.75;;;1.08;;
69956;SDS011;57283;54.816;9.482;2022-11-20T14:42:17;4.70;;;1.58;;
69956;SDS011;57283;54.816;9.482;2022-11-20T14:44:47;5.00;;;1.83;;
69956;SDS011;57283;54.816;9.482;2022-11-20T14:47:17;4.53;;;1.70;;
69956;SDS011;57283;54.816;9.482;2022-11-20T14:49:50;6.47;;;1.48;;
69956;SDS011;57283;54.816;9.482;2022-11-20T14:52:20;5.00;;;1.55;;
69956;SDS011;57283;54.816;9.482;2022-11-20T14:54:49;5.97;;;1.73;;
69956;SDS011;57283;54.816;9.482;2022-11-20T14:57:25;7.43;;;2.80;;
69956;SDS011;57283;54.816;9.482;2022-11-20T15:00:04;6.60;;;2.50;;
69956;SDS011;57283;54.816;9.482;2022-11-20T15:02:34;4.70;;;1.92;;
69956;SDS011;57283;54.816;9.482;2022-11-20T15:05:08;3.67;;;1.20;;
69956;SDS011;57283;54.816;9.482;2022-11-20T15:07:37;4.00;;;1.52;;
69956;SDS011;57283;54.816;9.482;2022-11-20T15:10:10;4.40;;;1.55;;
69956;SDS011;57283;54.816;9.482;2022-11-20T15:12:40;4.03;;;1.20;;
69956;SDS011;57283;54.816;9.482;2022-11-20T15:15:16;4.72;;;1.10;;
69956;SDS011;57283;54.816;9.482;2022-11-20T15:17:48;3.95;;;1.23;;
69956;SDS011;57283;54.816;9.482;2022-11-20T15:20:17;4.35;;;1.40;;
69956;SDS011;57283;54.816;9.482;2022-11-20T15:22:45;3.92;;;1.50;;
69956;SDS011;57283;54.816;9.482;2022-11-20T15:25:14;4.83;;;1.57;;
69956;SDS011;57283;54.816;9.482;2022-11-20T15:27:44;6.35;;;1.73;;
69956;SDS011;57283;54.816;9.482;2022-11-20T15:30:17;6.18;;;1.92;;